Time;durP1;ratioP1;P1;durP2;ratioP2;P2;SDS_P1;SDS_P2;PMS_P1;PMS_P2;Temp;Humidity;BMP_temperature;BMP_pressure;BME280_temperature;BME280_humidity;BME280_pressure;Samples;Min_cycle;Max_cycle;Signal;HPM_P1;HPM_P2
2022/06/15 00:00:44;;;;;;;16.92;6.65;;;;;;;19.89;100.00;100871.91;5135514;27;20041;-85
2022/06/15 00:03:12;;;;;;;11.60;7.07;;;;;;;19.93;100.00;100867.78;5117126;27;20039;-85
2022/06/15 00:05:38;;;;;;;9.13;6.78;;;;;;;20.01;100.00;100875.94;5116970;27;20100;-85
2022/06/15 00:08:05;;;;;;;7.43;6.25;;;;;;;20.00;100.00;100871.47;5135508;27;20030;-85
2022/06/15 00:10:31;;;;;;;9.68;6.30;;;;;;;19.99;100.00;100884.31;5135427;27;20027;-85
2022/06/15 00:12:56;;;;;;;7.47;5.68;;;;;;;19.94;100.00;100864.00;5135338;27;20080;-86
2022/06/15 00:15:22;;;;;;;7.03;5.82;;;;;;;19.97;100.00;100869.09;5135284;27;20425;-85
2022/06/15 00:17:48;;;;;;;6.32;5.50;;;;;;;19.90;100.00;100859.97;5116830;27;20039;-86
2022/06/15 00:20:13;;;;;;;8.55;5.97;;;;;;;19.91;100.00;100869.81;5117133;27;20412;-85
2022/06/15 00:22:40;;;;;;;12.23;5.82;;;;;;;19.90;100.00;100863.53;5135644;27;20073;-85
2022/06/15 00:25:07;;;;;;;15.80;5.90;;;;;;;19.96;100.00;100867.44;5135145;27;20027;-85
2022/06/15 00:27:32;;;;;;;6.80;5.07;;;;;;;19.95;99.54;100872.03;5135154;27;20079;-85
2022/06/15 00:29:58;;;;;;;10.75;5.75;;;;;;;19.92;98.78;100896.13;5135290;27;20109;-85
2022/06/15 00:32:23;;;;;;;10.38;6.38;;;;;;;19.97;98.52;100896.41;5117106;27;20524;-85
2022/06/15 00:34:49;;;;;;;10.50;5.50;;;;;;;19.93;98.77;100890.50;5135112;27;20027;-85
2022/06/15 00:37:14;;;;;;;9.85;5.60;;;;;;;19.97;98.54;100883.63;5134932;27;20167;-85
2022/06/15 00:39:40;;;;;;;9.60;6.40;;;;;;;20.03;99.11;100892.97;5135171;27;20031;-85
2022/06/15 00:42:06;;;;;;;12.32;5.28;;;;;;;20.01;99.17;100889.56;5135179;27;20020;-85
2022/06/15 00:44:37;;;;;;;12.52;5.28;;;;;;;20.04;98.61;100883.75;5135110;27;20034;-85
2022/06/15 00:47:35;;;;;;;8.07;5.22;;;;;;;20.10;99.13;100896.69;5135028;27;20030;-85
2022/06/15 00:50:05;;;;;;;14.55;5.68;;;;;;;20.09;99.08;100884.91;5134228;27;20035;-85
2022/06/15 00:52:41;;;;;;;6.63;5.22;;;;;;;20.02;97.87;100888.56;5135159;27;20059;-85
2022/06/15 00:55:14;;;;;;;6.45;5.38;;;;;;;20.02;97.92;100891.28;5135082;27;20019;-85
2022/06/15 00:57:40;;;;;;;8.50;5.47;;;;;;;20.05;98.14;100894.50;5134773;27;20109;-85
2022/06/15 01:00:07;;;;;;;14.93;5.60;;;;;;;19.97;97.02;100886.34;5116317;27;20034;-84
2022/06/15 01:02:36;;;;;;;9.80;4.82;;;;;;;19.98;97.48;100890.78;5134546;27;20027;-85
2022/06/15 01:05:12;;;;;;;8.10;4.72;;;;;;;19.96;98.00;100881.09;5134745;27;20023;-85
2022/06/15 01:08:17;;;;;;;9.25;5.45;;;;;;;20.02;98.69;100891.28;5134978;27;20027;-85
2022/06/15 01:10:55;;;;;;;7.30;5.15;;;;;;;19.97;98.89;100890.94;5133293;27;20092;-84
2022/06/15 01:13:51;;;;;;;7.18;5.75;;;;;;;19.97;97.82;100890.94;5134888;27;20088;-85
2022/06/15 01:16:35;;;;;;;12.27;5.53;;;;;;;19.94;97.26;100885.84;5134275;27;20027;-84
2022/06/15 01:19:09;;;;;;;11.85;4.82;;;;;;;19.92;95.22;100896.97;5116157;27;20031;-84
2022/06/15 01:21:46;;;;;;;5.85;4.53;;;;;;;19.84;94.67;100886.09;5134515;27;20035;-83
2022/06/15 01:24:29;;;;;;;7.18;4.43;;;;;;;19.77;95.68;100892.44;5134579;27;20023;-85
2022/06/15 01:27:07;;;;;;;5.97;5.03;;;;;;;19.71;96.21;100891.28;5134504;27;20377;-85
2022/06/15 01:29:41;;;;;;;7.07;5.15;;;;;;;19.66;97.01;100898.28;5116170;27;20122;-84
2022/06/15 01:32:37;;;;;;;7.10;5.15;;;;;;;19.67;97.07;100895.38;5150923;27;20041;-84
2022/06/15 01:35:11;;;;;;;8.55;4.80;;;;;;;19.70;96.53;100905.94;5094347;28;20024;-84
2022/06/15 01:37:55;;;;;;;15.57;5.85;;;;;;;19.64;95.46;100894.88;5074577;28;20075;-85
2022/06/15 01:40:32;;;;;;;9.57;5.20;;;;;;;19.55;92.28;100892.19;5093245;28;20561;-84
2022/06/15 01:43:03;;;;;;;8.60;4.57;;;;;;;19.53;92.44;100888.78;5093134;28;20107;-84
2022/06/15 01:45:33;;;;;;;6.55;4.75;;;;;;;19.53;93.16;100894.25;5093162;28;20504;-84
2022/06/15 01:48:03;;;;;;;6.28;4.22;;;;;;;19.50;93.20;100894.59;5092927;28;20028;-84
2022/06/15 01:50:35;;;;;;;7.90;5.18;;;;;;;19.52;93.45;100898.00;5092703;28;20035;-84
2022/06/15 01:53:45;;;;;;;4.55;4.15;;;;;;;19.47;92.96;100903.13;5092897;28;20028;-84
2022/06/15 01:56:28;;;;;;;8.98;4.85;;;;;;;19.46;93.54;100909.63;5092572;28;20040;-84
2022/06/15 01:59:00;;;;;;;9.13;4.53;;;;;;;19.37;92.96;100898.88;5093239;28;20031;-84
2022/06/15 02:01:48;;;;;;;;;;;;;;;19.36;92.94;100908.91;5093349;28;20028;-84
2022/06/15 02:04:29;;;;;;;8.30;5.07;;;;;;;19.35;94.13;100906.38;5087246;28;20366;-84
2022/06/15 02:07:29;;;;;;;5.35;4.47;;;;;;;19.36;95.07;100906.19;5074786;28;20107;-84
2022/06/15 02:09:58;;;;;;;6.30;4.78;;;;;;;19.36;93.34;100903.47;5092537;28;20115;-84
2022/06/15 02:12:39;;;;;;;10.90;4.05;;;;;;;19.36;91.85;100899.88;5093036;28;20032;-86
2022/06/15 02:15:07;;;;;;;8.20;4.20;;;;;;;19.32;91.90;100912.19;5093702;28;20028;-86
2022/06/15 02:17:42;;;;;;;13.65;4.22;;;;;;;19.31;92.66;100905.03;5077904;28;20040;-87
2022/06/15 02:20:30;;;;;;;8.63;4.82;;;;;;;19.29;92.76;100907.94;5097389;28;20066;-87
2022/06/15 02:22:59;;;;;;;11.98;4.68;;;;;;;19.39;93.54;100918.63;5079233;28;20028;-87
2022/06/15 02:25:32;;;;;;;8.50;5.43;;;;;;;19.41;93.62;100914.75;5079457;28;20024;-89
2022/06/15 02:28:00;;;;;;;8.93;7.32;;;;;;;19.41;93.56;100906.56;5097693;28;20024;-89
2022/06/15 02:30:28;;;;;;;7.05;5.03;;;;;;;19.46;92.80;100925.13;5098001;28;20107;-89
2022/06/15 02:32:53;;;;;;;7.97;4.75;;;;;;;19.50;91.58;100915.56;5083516;28;20028;-88
2022/06/15 02:35:21;;;;;;;12.55;4.60;;;;;;;19.44;91.36;100911.69;5118959;27;20032;-88
2022/06/15 02:37:49;;;;;;;13.85;4.28;;;;;;;19.47;90.69;100905.88;5120174;27;20023;-88
2022/06/15 02:40:19;;;;;;;8.57;5.22;;;;;;;19.51;89.82;100918.13;5120154;27;20027;-88
2022/06/15 02:42:45;;;;;;;13.60;4.90;;;;;;;19.54;90.01;100912.31;5120203;27;20027;-88
2022/06/15 02:45:20;;;;;;;4.90;4.03;;;;;;;19.63;90.42;100925.94;5138053;27;20033;-87
2022/06/15 02:47:46;;;;;;;10.10;4.55;;;;;;;19.54;89.22;100927.81;5138266;27;20023;-88
2022/06/15 02:50:17;;;;;;;8.60;4.25;;;;;;;19.51;88.68;100918.13;5138453;27;20407;-87
2022/06/15 02:52:47;;;;;;;8.40;4.70;;;;;;;19.52;88.58;100925.28;5138142;27;20023;-87
2022/06/15 02:55:15;;;;;;;11.65;4.57;;;;;;;19.53;89.54;100927.00;5119857;27;20042;-88
2022/06/15 02:57:47;;;;;;;10.60;4.38;;;;;;;19.45;88.38;100916.09;5137563;27;20054;-87
2022/06/15 03:00:14;;;;;;;14.73;3.85;;;;;;;19.48;87.82;100923.91;5137918;27;20050;-86
2022/06/15 03:02:40;;;;;;;8.77;4.50;;;;;;;19.42;87.22;100916.44;5137980;27;20110;-86
2022/06/15 03:05:06;;;;;;;7.38;4.10;;;;;;;19.36;86.86;100914.38;5137608;27;20055;-87
2022/06/15 03:07:31;;;;;;;10.75;3.80;;;;;;;19.40;86.86;100914.91;5137878;27;20023;-87
2022/06/15 03:09:57;;;;;;;7.38;4.10;;;;;;;19.36;86.16;100916.25;5138711;27;20027;-87
2022/06/15 03:12:22;;;;;;;8.95;4.45;;;;;;;19.32;85.96;100923.94;5137828;27;20030;-86
2022/06/15 03:14:48;;;;;;;7.78;4.65;;;;;;;19.33;86.64;100925.63;5138643;27;20031;-86
2022/06/15 03:17:13;;;;;;;15.40;5.10;;;;;;;19.37;87.51;100926.13;5137993;27;20091;-86
2022/06/15 03:19:39;;;;;;;9.15;5.15;;;;;;;19.41;87.91;100936.56;5138256;27;20023;-86
2022/06/15 03:22:05;;;;;;;10.70;4.57;;;;;;;19.43;87.59;100931.78;5137065;27;20030;-86
2022/06/15 03:24:30;;;;;;;8.63;4.90;;;;;;;19.57;86.80;100943.84;5138728;27;20034;-84
2022/06/15 03:26:56;;;;;;;8.10;4.47;;;;;;;19.48;85.49;100929.38;5138071;27;20019;-86
2022/06/15 03:29:23;;;;;;;7.30;4.30;;;;;;;19.64;85.37;100941.25;5137437;27;20027;-86
2022/06/15 03:31:49;;;;;;;11.43;4.57;;;;;;;19.68;85.33;100934.44;5137892;27;20031;-86
2022/06/15 03:34:15;;;;;;;12.15;4.75;;;;;;;19.77;85.45;100936.09;5137676;27;20529;-84
2022/06/15 03:36:40;;;;;;;10.43;5.10;;;;;;;19.80;83.95;100943.94;5137561;27;20051;-85
2022/06/15 03:39:06;;;;;;;13.57;4.55;;;;;;;19.85;81.95;100949.72;5137588;27;20382;-84
2022/06/15 03:41:31;;;;;;;18.98;5.50;;;;;;;19.79;81.33;100948.53;5139677;27;20027;-85
2022/06/15 03:43:57;;;;;;;5.75;4.53;;;;;;;19.95;82.18;100953.94;5145599;27;20031;-85
2022/06/15 03:46:23;;;;;;;8.15;5.05;;;;;;;20.01;82.18;100946.91;5141880;27;20147;-85
2022/06/15 03:48:49;;;;;;;11.38;4.82;;;;;;;20.05;82.63;100942.81;5137328;27;20408;-85
2022/06/15 03:51:14;;;;;;;8.85;4.30;;;;;;;20.20;83.42;100960.16;5137759;27;20027;-79
2022/06/15 03:53:40;;;;;;;16.80;5.65;;;;;;;20.14;82.55;100952.66;5136181;27;20027;-77
2022/06/15 03:56:06;;;;;;;12.85;4.97;;;;;;;20.20;81.35;100951.94;5136325;27;20106;-86
2022/06/15 03:58:31;;;;;;;7.38;4.72;;;;;;;20.18;80.41;100951.28;5135897;27;20080;-79
2022/06/15 04:00:57;;;;;;;9.70;3.97;;;;;;;20.20;80.21;100946.47;5135992;27;20023;-80
2022/06/15 04:03:22;;;;;;;25.95;5.72;;;;;;;20.28;79.64;100953.81;5136541;27;20027;-86
2022/06/15 04:05:52;;;;;;;11.98;4.70;;;;;;;20.28;79.83;100965.59;5136379;27;20027;-88
2022/06/15 04:08:42;;;;;;;15.55;5.47;;;;;;;20.39;79.67;100969.81;5135862;27;20059;-79
2022/06/15 04:11:10;;;;;;;30.90;5.20;;;;;;;20.48;79.64;100972.31;5135107;27;20027;-78
2022/06/15 04:13:37;;;;;;;15.40;4.32;;;;;;;20.60;81.05;100975.47;5134898;27;20038;-79
2022/06/15 04:16:06;;;;;;;11.63;4.55;;;;;;;20.67;80.29;100978.34;5134807;27;20031;-79
2022/06/15 04:18:31;;;;;;;6.57;4.45;;;;;;;20.63;79.46;100978.69;5135760;27;20042;-82
2022/06/15 04:20:57;;;;;;;9.60;4.88;;;;;;;20.64;78.33;100983.09;5136234;27;20031;-82
2022/06/15 04:23:23;;;;;;;10.05;4.75;;;;;;;20.67;77.17;100975.59;5136262;27;20472;-84
2022/06/15 04:25:57;;;;;;;7.57;4.57;;;;;;;20.59;76.35;100973.75;5135914;27;20473;-83
2022/06/15 04:28:24;;;;;;;30.98;6.40;;;;;;;20.56;77.47;100982.31;5135870;27;20112;-83
2022/06/15 04:30:50;;;;;;;28.80;6.95;;;;;;;20.58;78.12;100978.38;5136367;27;20065;-82
2022/06/15 04:33:16;;;;;;;69.75;11.55;;;;;;;20.63;78.45;100975.09;5127747;27;20409;-83
2022/06/15 04:35:42;;;;;;;8.52;4.75;;;;;;;20.51;77.54;100974.69;5118901;27;20047;-83
2022/06/15 04:38:10;;;;;;;83.18;9.20;;;;;;;20.55;78.11;100976.00;5135496;27;20480;-79
2022/06/15 04:40:36;;;;;;;86.50;12.52;;;;;;;20.52;79.29;100981.81;5134834;27;20034;-83
2022/06/15 04:43:02;;;;;;;45.67;9.18;;;;;;;20.56;79.33;100990.53;5117327;27;20034;-82
2022/06/15 04:45:28;;;;;;;56.67;7.72;;;;;;;20.52;77.57;100984.56;5135961;27;20038;-81
2022/06/15 04:47:53;;;;;;;62.90;11.02;;;;;;;20.61;76.43;100982.63;5135552;27;20365;-80
2022/06/15 04:50:19;;;;;;;23.92;5.78;;;;;;;20.57;77.31;100981.31;5135437;27;20027;-81
2022/06/15 04:52:45;;;;;;;57.38;8.25;;;;;;;20.61;75.91;100994.41;5135661;27;20030;-81
2022/06/15 04:55:14;;;;;;;33.85;5.97;;;;;;;20.57;76.79;100987.63;5134952;27;20030;-80
2022/06/15 04:57:39;;;;;;;64.45;9.20;;;;;;;20.51;75.82;100991.09;5135101;27;20053;-88
2022/06/15 05:00:07;;;;;;;21.40;6.38;;;;;;;20.57;76.87;100992.22;5117761;27;20477;-83
2022/06/15 05:02:33;;;;;;;30.33;6.18;;;;;;;20.59;77.44;100995.63;5135668;27;20114;-82
2022/06/15 05:04:59;;;;;;;16.55;5.43;;;;;;;20.64;78.15;100993.19;5135659;27;20063;-81
2022/06/15 05:07:25;;;;;;;39.42;6.80;;;;;;;20.71;77.97;101005.09;5134698;27;20118;-81
2022/06/15 05:09:51;;;;;;;21.70;5.60;;;;;;;20.64;74.58;100994.03;5134612;27;20540;-82
2022/06/15 05:12:18;;;;;;;136.88;14.18;;;;;;;20.80;74.66;101014.09;5134122;27;20476;-83
2022/06/15 05:14:47;;;;;;;38.85;6.82;;;;;;;20.88;75.39;101012.19;5134315;27;20031;-80
2022/06/15 05:17:22;;;;;;;53.00;6.82;;;;;;;20.93;74.44;101003.41;5134230;27;20061;-81
2022/06/15 05:19:48;;;;;;;60.40;7.32;;;;;;;20.99;72.69;101024.56;5134499;27;20668;-82
2022/06/15 05:22:14;;;;;;;16.50;4.45;;;;;;;20.92;72.32;101015.38;5133980;27;20054;-81
2022/06/15 05:24:40;;;;;;;81.43;9.45;;;;;;;21.04;71.78;101014.78;5134517;27;20423;-81
2022/06/15 05:27:06;;;;;;;12.00;4.22;;;;;;;21.13;72.71;101023.78;5134062;27;20023;-81
2022/06/15 05:29:33;;;;;;;33.08;5.43;;;;;;;21.11;72.64;101017.66;5134402;27;20556;-81
2022/06/15 05:31:59;;;;;;;58.78;6.47;;;;;;;21.13;70.92;101021.91;5134027;27;20476;-82
2022/06/15 05:34:25;;;;;;;25.98;4.70;;;;;;;21.22;69.12;101019.97;5133324;27;20076;-81
2022/06/15 05:36:50;;;;;;;27.08;7.47;;;;;;;21.28;69.01;101032.94;5133424;27;20152;-80
2022/06/15 05:39:16;;;;;;;74.38;9.27;;;;;;;21.34;69.29;101043.13;5133853;27;20031;-81
2022/06/15 05:41:42;;;;;;;17.20;4.05;;;;;;;21.36;70.72;101032.84;5134075;27;20056;-80
2022/06/15 05:46:59;;;;;;;40.88;5.40;;;;;;;21.44;67.40;101049.19;5133902;27;20408;-80
2022/06/15 05:49:27;;;;;;;11.02;3.80;;;;;;;21.56;69.67;101050.44;5133361;27;20084;-81
2022/06/15 05:51:52;;;;;;;45.38;7.50;;;;;;;21.55;67.40;101047.91;5132919;27;20027;-80
2022/06/15 05:54:18;;;;;;;28.15;5.70;;;;;;;21.56;68.34;101050.44;5133886;27;20031;-80
2022/06/15 05:56:44;;;;;;;24.23;5.45;;;;;;;21.68;68.71;101059.91;5133487;27;20057;-81
2022/06/15 05:59:09;;;;;;;28.38;6.90;;;;;;;21.76;64.91;101077.28;5133170;27;20408;-80
2022/06/15 06:01:37;;;;;;;25.63;5.28;;;;;;;21.75;66.18;101061.88;5133223;27;20053;-80
2022/06/15 06:04:03;;;;;;;64.07;10.32;;;;;;;21.76;65.50;101072.66;5133352;27;20079;-80
2022/06/15 06:06:30;;;;;;;44.45;6.55;;;;;;;21.71;63.90;101062.25;5133440;27;20453;-80
2022/06/15 06:08:56;;;;;;;25.60;4.47;;;;;;;21.71;64.41;101070.47;5133615;27;20031;-80
2022/06/15 06:11:22;;;;;;;32.97;5.70;;;;;;;21.81;65.19;101077.56;5133481;27;20027;-79
2022/06/15 06:13:48;;;;;;;19.20;4.45;;;;;;;21.89;66.11;101067.44;5133246;28;20027;-80
2022/06/15 06:16:14;;;;;;;15.38;4.28;;;;;;;21.91;65.94;101069.97;5133556;28;20048;-81
2022/06/15 06:18:40;;;;;;;35.45;7.13;;;;;;;21.98;66.90;101070.94;5132860;28;20027;-80
2022/06/15 06:21:06;;;;;;;42.10;8.65;;;;;;;22.00;64.93;101074.31;5133053;28;20519;-79
2022/06/15 06:23:33;;;;;;;25.55;4.68;;;;;;;22.07;64.90;101065.19;5133366;28;20034;-80
2022/06/15 06:26:00;;;;;;;22.70;4.13;;;;;;;22.20;64.79;101075.44;5133406;28;20156;-80
2022/06/15 06:28:41;;;;;;;25.42;5.60;;;;;;;22.31;64.73;101076.88;5133394;28;20098;-81
2022/06/15 06:31:09;;;;;;;33.65;5.72;;;;;;;22.37;64.24;101087.94;5133209;28;20033;-79
2022/06/15 06:33:36;;;;;;;41.05;6.22;;;;;;;22.41;63.62;101078.31;5122914;28;20098;-81
2022/06/15 06:36:08;;;;;;;19.70;4.20;;;;;;;22.46;64.58;101081.31;5119133;28;20107;-80
2022/06/15 06:38:34;;;;;;;38.00;6.22;;;;;;;22.48;63.27;101075.63;5114304;28;20553;-81
2022/06/15 06:41:00;;;;;;;26.40;5.35;;;;;;;22.55;62.41;101082.91;5132720;28;20099;-81
2022/06/15 06:43:26;;;;;;;14.80;3.92;;;;;;;22.54;64.15;101088.56;5132690;28;20058;-80
2022/06/15 06:45:52;;;;;;;18.10;4.35;;;;;;;22.57;64.71;101077.22;5132795;28;20087;-80
2022/06/15 06:48:17;;;;;;;37.97;5.38;;;;;;;22.52;63.06;101085.19;5133099;28;20442;-80
2022/06/15 06:50:43;;;;;;;24.50;4.85;;;;;;;22.52;62.30;101074.22;5132411;28;20457;-79
2022/06/15 06:53:10;;;;;;;35.05;6.07;;;;;;;22.62;62.85;101083.84;5132682;28;20034;-80
2022/06/15 06:55:36;;;;;;;5.85;3.30;;;;;;;22.68;61.72;101098.72;5132822;28;20023;-80
2022/06/15 06:58:03;;;;;;;18.50;3.83;;;;;;;22.65;61.25;101086.25;5132400;28;20023;-81
2022/06/15 07:00:30;;;;;;;38.22;4.57;;;;;;;22.67;61.26;101095.13;5114291;28;20089;-80
2022/06/15 07:02:58;;;;;;;18.60;5.00;;;;;;;22.69;63.18;101092.16;5134476;27;20035;-78
2022/06/15 07:05:24;;;;;;;25.88;5.03;;;;;;;22.73;62.10;101091.59;5118047;27;20124;-79
2022/06/15 07:07:50;;;;;;;26.33;5.40;;;;;;;22.69;61.94;101103.97;5136327;27;20396;-79
2022/06/15 07:10:15;;;;;;;24.33;4.80;;;;;;;22.67;62.32;101086.03;5136462;27;20605;-79
2022/06/15 07:12:42;;;;;;;23.50;4.72;;;;;;;22.78;63.07;101088.28;5136671;27;20031;-79
2022/06/15 07:15:10;;;;;;;15.93;4.03;;;;;;;22.95;63.89;101086.16;5136933;27;20540;-79
2022/06/15 07:17:35;;;;;;;20.92;4.55;;;;;;;22.92;60.50;101081.91;5138619;27;20095;-79
2022/06/15 07:20:02;;;;;;;7.32;2.80;;;;;;;22.98;61.67;101081.13;5137492;27;20556;-79
2022/06/15 07:22:27;;;;;;;12.43;4.28;;;;;;;23.04;61.29;101098.69;5136438;27;20027;-79
2022/06/15 07:24:53;;;;;;;11.68;4.65;;;;;;;22.97;61.74;101090.41;5136610;27;20031;-80
2022/06/15 07:27:18;;;;;;;13.02;4.07;;;;;;;22.96;61.46;101085.13;5136888;27;20019;-79
2022/06/15 07:29:46;;;;;;;14.50;4.15;;;;;;;22.97;63.01;101089.53;5136257;27;20473;-80
2022/06/15 07:32:14;;;;;;;34.20;5.85;;;;;;;23.02;62.82;101092.56;5136559;27;20019;-78
2022/06/15 07:34:41;;;;;;;9.82;3.83;;;;;;;23.10;61.80;101100.66;5136050;27;20025;-79
2022/06/15 07:37:07;;;;;;;27.70;5.03;;;;;;;23.18;62.69;101103.28;5135780;27;20039;-79
2022/06/15 07:39:33;;;;;;;21.90;4.13;;;;;;;23.22;62.03;101110.94;5135610;27;20027;-79
2022/06/15 07:42:00;;;;;;;42.15;4.53;;;;;;;23.30;60.64;101107.22;5135101;27;20023;-79
2022/06/15 07:44:27;;;;;;;4.60;2.72;;;;;;;23.36;61.16;101106.44;5135285;27;20106;-77
2022/06/15 07:49:54;;;;;;;15.02;3.80;;;;;;;23.38;60.64;101109.84;5135573;27;20089;-78
2022/06/15 07:49:55;;;;;;;31.48;4.07;;;;;;;23.40;61.39;101105.03;5135576;27;20034;-78
2022/06/15 07:52:40;;;;;;;35.60;5.55;;;;;;;23.57;61.95;101114.72;5135998;27;20038;-79
2022/06/15 07:55:09;;;;;;;8.10;3.58;;;;;;;23.67;60.80;101114.34;5136075;27;20130;-78
2022/06/15 07:57:35;;;;;;;8.27;3.20;;;;;;;23.75;59.68;101112.34;5116775;27;20069;-78
2022/06/15 08:00:02;;;;;;;18.08;3.63;;;;;;;23.92;59.50;101121.09;5135789;27;20039;-79
2022/06/15 08:02:28;;;;;;;6.07;2.75;;;;;;;24.01;59.22;101119.91;5135561;27;20046;-78
2022/06/15 08:04:53;;;;;;;14.10;3.50;;;;;;;24.18;57.87;101124.09;5135669;27;20585;-78
2022/06/15 08:07:19;;;;;;;23.92;4.38;;;;;;;24.25;59.04;101118.63;5135132;27;20054;-78
2022/06/15 08:09:44;;;;;;;9.15;3.17;;;;;;;24.42;58.20;101114.50;5135559;27;20027;-77
2022/06/15 08:12:11;;;;;;;10.05;3.78;;;;;;;24.57;57.99;101123.47;5137131;27;20386;-77
2022/06/15 08:14:40;;;;;;;12.63;3.42;;;;;;;24.56;56.08;101113.50;5137547;27;20457;-77
2022/06/15 08:17:08;;;;;;;33.33;4.63;;;;;;;24.78;57.12;101114.25;5137675;27;20072;-78
2022/06/15 08:19:37;;;;;;;16.45;4.45;;;;;;;24.88;56.88;101110.09;5137709;27;20045;-78
2022/06/15 08:22:04;;;;;;;15.38;3.85;;;;;;;25.00;55.93;101123.25;5136808;27;20050;-79
2022/06/15 08:24:31;;;;;;;12.63;2.92;;;;;;;25.13;55.63;101123.31;5136185;27;20029;-79
2022/06/15 08:26:57;;;;;;;17.17;4.18;;;;;;;25.14;55.58;101113.97;5134901;27;20098;-79
2022/06/15 08:29:22;;;;;;;10.48;4.03;;;;;;;25.12;54.72;101127.09;5135552;27;20019;-80
2022/06/15 08:31:48;;;;;;;4.07;2.47;;;;;;;25.14;54.79;101136.00;5135279;27;20049;-78
2022/06/15 08:34:14;;;;;;;13.90;3.08;;;;;;;25.30;55.16;101111.69;5135990;27;20049;-78
2022/06/15 08:36:39;;;;;;;6.70;2.55;;;;;;;25.29;53.59;101114.63;5136247;27;20043;-79
2022/06/15 08:39:05;;;;;;;10.68;2.90;;;;;;;25.23;53.62;101121.84;5135441;27;20031;-78
2022/06/15 08:41:36;;;;;;;11.18;2.67;;;;;;;25.23;52.63;101134.75;5134965;27;20114;-78
2022/06/15 08:44:08;;;;;;;6.57;2.92;;;;;;;25.27;52.83;101131.38;5115855;27;20058;-79
2022/06/15 08:46:51;;;;;;;8.57;2.43;;;;;;;25.21;52.44;101136.88;5134918;27;20106;-79
2022/06/15 08:49:40;;;;;;;25.92;4.65;;;;;;;25.24;53.75;101136.47;5134696;27;20062;-79
2022/06/15 08:52:14;;;;;;;7.90;2.80;;;;;;;25.13;52.88;101137.06;5115748;27;20035;-78
2022/06/15 08:54:48;;;;;;;8.40;2.55;;;;;;;25.21;52.81;101131.38;5133867;27;20031;-78
2022/06/15 08:57:36;;;;;;;12.50;3.50;;;;;;;25.12;52.21;101138.13;5133795;27;20111;-77
2022/06/15 09:00:09;;;;;;;11.75;2.83;;;;;;;25.20;52.55;101140.66;5134161;27;20031;-79
2022/06/15 09:02:59;;;;;;;22.05;3.45;;;;;;;25.10;52.68;101132.84;5133891;27;20023;-79
2022/06/15 09:05:47;;;;;;;16.35;3.50;;;;;;;25.22;52.52;101135.81;5134194;27;20027;-78
2022/06/15 09:08:50;;;;;;;14.95;3.35;;;;;;;25.30;52.35;101136.47;5093086;27;20042;-79
2022/06/15 09:11:28;;;;;;;17.88;3.10;;;;;;;25.34;51.95;101136.91;5133478;27;20791;-79
2022/06/15 09:14:15;;;;;;;13.32;3.20;;;;;;;25.36;51.67;101140.28;5133982;27;20521;-77
2022/06/15 09:17:08;;;;;;;7.65;2.50;;;;;;;25.47;52.33;101142.47;5115088;27;20436;-78
2022/06/15 09:19:43;;;;;;;20.27;3.47;;;;;;;25.70;51.62;101142.06;5133335;27;20034;-78
2022/06/15 09:22:16;;;;;;;8.00;2.58;;;;;;;25.88;50.23;101143.13;5133221;27;20059;-78
2022/06/15 09:24:52;;;;;;;27.10;4.30;;;;;;;25.91;48.46;101150.13;5133207;27;20453;-80
2022/06/15 09:27:26;;;;;;;9.27;2.55;;;;;;;25.91;48.44;101148.22;5133180;27;20019;-78
2022/06/15 09:29:58;;;;;;;13.75;3.50;;;;;;;25.97;48.80;101144.63;5133085;27;20563;-79
2022/06/15 09:32:30;;;;;;;12.18;3.28;;;;;;;26.05;49.37;101145.47;5133538;27;20382;-79
2022/06/15 09:35:02;;;;;;;;;;;;;;;26.18;46.69;101151.84;5092712;28;20020;-78
2022/06/15 09:37:33;;;;;;;21.47;4.00;;;;;;;26.17;46.98;101149.31;5091912;28;19963;-78
2022/06/15 09:40:00;;;;;;;7.97;2.40;;;;;;;26.30;48.05;101149.28;5092093;28;20278;-78
2022/06/15 09:42:50;;;;;;;14.18;3.08;;;;;;;26.42;48.58;101148.41;5092426;28;20131;-77
2022/06/15 09:45:38;;;;;;;12.90;3.00;;;;;;;26.55;47.83;101158.56;5092651;28;20441;-79
2022/06/15 09:48:23;;;;;;;7.88;2.72;;;;;;;26.38;47.41;101152.69;5092377;28;20029;-78
2022/06/15 09:50:52;;;;;;;9.55;2.58;;;;;;;26.38;47.83;101147.16;5091954;28;20036;-77
2022/06/15 09:53:26;;;;;;;25.17;3.65;;;;;;;26.45;47.72;101150.72;5091896;28;20027;-77
2022/06/15 09:56:04;;;;;;;10.65;2.85;;;;;;;26.61;46.56;101154.09;5074068;28;20030;-79
2022/06/15 09:58:35;;;;;;;8.65;2.60;;;;;;;26.61;46.98;101148.56;5092287;28;20448;-78
2022/06/15 10:01:01;;;;;;;21.13;4.22;;;;;;;26.65;46.22;101152.59;5092297;28;20032;-78
2022/06/15 10:03:32;;;;;;;14.50;2.97;;;;;;;26.57;46.98;101144.56;5091824;28;20085;-77
2022/06/15 10:06:07;;;;;;;12.82;2.80;;;;;;;26.50;46.58;101150.94;5092151;28;20026;-78
2022/06/15 10:08:32;;;;;;;11.25;2.95;;;;;;;26.52;46.32;101157.09;5092244;28;20028;-78
2022/06/15 10:11:02;;;;;;;20.60;4.20;;;;;;;26.47;47.74;101150.53;5092526;28;20089;-77
2022/06/15 10:13:33;;;;;;;7.45;3.00;;;;;;;26.45;47.53;101155.44;5092153;28;20111;-78
2022/06/15 10:16:16;;;;;;;13.15;3.42;;;;;;;26.63;48.25;101157.50;5091892;28;20016;-78
2022/06/15 10:18:48;;;;;;;17.17;3.75;;;;;;;26.67;49.42;101155.97;5092032;28;20104;-78
2022/06/15 10:21:13;;;;;;;19.53;4.00;;;;;;;26.79;49.66;101152.31;5091608;28;20485;-79
2022/06/15 10:23:51;;;;;;;8.75;3.00;;;;;;;26.86;49.69;101155.09;5091616;28;20266;-77
2022/06/15 10:26:33;;;;;;;16.00;2.70;;;;;;;26.94;45.29;101166.75;5073923;28;20023;-79
2022/06/15 10:29:18;;;;;;;12.02;3.00;;;;;;;26.92;45.29;101159.75;5092249;28;20034;-78
2022/06/15 10:32:06;;;;;;;13.85;2.80;;;;;;;27.00;46.37;101157.56;5091840;28;20031;-78
2022/06/15 10:34:35;;;;;;;42.97;6.68;;;;;;;26.96;47.54;101149.97;5109280;28;20016;-78
2022/06/15 10:37:07;;;;;;;28.60;4.57;;;;;;;26.96;46.79;101161.88;5112514;28;20104;-78
2022/06/15 10:39:37;;;;;;;16.10;3.10;;;;;;;27.04;48.73;101147.81;5115739;28;20020;-77
2022/06/15 10:42:17;;;;;;;10.25;2.80;;;;;;;26.73;46.82;101144.06;5115725;28;20043;-78
2022/06/15 10:45:01;;;;;;;21.83;2.95;;;;;;;26.76;48.56;101152.75;5116463;28;20354;-77
2022/06/15 10:47:48;;;;;;;5.90;2.38;;;;;;;26.77;46.81;101157.22;5116565;28;20020;-79
2022/06/15 10:50:34;;;;;;;12.35;2.60;;;;;;;26.71;46.45;101144.31;5098848;28;20404;-77
2022/06/15 10:53:02;;;;;;;12.32;3.72;;;;;;;26.72;46.89;101148.75;5116264;28;20039;-78
2022/06/15 11:04:19;;;;;;;8.88;2.55;;;;;;;26.65;50.30;101158.97;5116222;28;20425;-78
2022/06/15 11:06:52;;;;;;;14.07;4.07;;;;;;;26.66;50.76;101146.03;5116000;28;20027;-79
2022/06/15 11:09:28;;;;;;;5.93;2.60;;;;;;;26.75;50.31;101159.38;5115276;28;20028;-79
2022/06/15 11:11:56;;;;;;;15.98;2.67;;;;;;;26.79;50.91;101155.09;5115779;28;20103;-79
2022/06/15 11:14:42;;;;;;;6.93;2.70;;;;;;;26.71;51.11;101149.81;5097277;28;20023;-79
2022/06/15 11:20:51;;;;;;;12.00;3.35;;;;;;;27.18;50.96;101156.03;5115286;28;20034;-79
2022/06/15 11:23:23;;;;;;;13.73;3.42;;;;;;;27.09;49.44;101154.59;5093695;28;20039;-78
2022/06/15 11:29:00;;;;;;;12.07;2.88;;;;;;;27.24;50.09;101152.38;5115488;28;20062;-79
2022/06/15 11:31:28;;;;;;;8.13;2.47;;;;;;;27.44;49.81;101137.41;5115247;28;20564;-79
2022/06/15 11:34:09;;;;;;;18.13;4.00;;;;;;;27.54;49.97;101147.97;5114731;28;20023;-81
2022/06/15 11:36:46;;;;;;;12.60;2.40;;;;;;;27.65;50.05;101141.72;5115078;28;20078;-78
2022/06/15 11:39:23;;;;;;;21.63;3.22;;;;;;;27.81;49.35;101155.00;5115212;28;20028;-77
2022/06/15 11:41:52;;;;;;;12.15;3.03;;;;;;;27.59;49.80;101150.91;5115058;28;20477;-77
2022/06/15 11:44:27;;;;;;;41.15;5.97;;;;;;;27.53;50.01;101157.31;5115274;28;20024;-79
2022/06/15 11:47:06;;;;;;;9.85;2.85;;;;;;;27.28;49.86;101162.75;5115080;28;20019;-77
2022/06/15 11:50:15;;;;;;;10.75;3.20;;;;;;;27.21;50.13;101161.97;5113293;28;20103;-78
2022/06/15 11:52:58;;;;;;;17.05;3.25;;;;;;;27.10;50.33;101151.59;5114624;28;20028;-78
2022/06/15 11:55:36;;;;;;;15.50;3.90;;;;;;;27.11;50.06;101157.97;5114655;28;20102;-79